sim
Sign-in with your pilot id or email,
or register
Callsign
Passwort

Schedule Details

Flight Number: OEO3131
Departure: Edinburgh Airport (EGPH) at 08:15
Arrival: Munich Airport (EDDM) at 10:30

Weather Information
Getting current METAR information for EGPH 262120Z VRB02KT CAVOK 04/03 Q1020
Getting current METAR information for EDDM 262120Z 24018KT 9999 OVC023 07/04 Q1001 NOSIG

Schedule Frequency

Route Map